Terminal Aerodrome Forecast
Issued by NWS

Home | Current Version | Previous Version | Text Only | Print | Product List | Glossary On
Versions: 1 2 3 4 5 6 7 8 9 10 11 12 13 14 15 16 17
102
FTUS41 KALY 230542
TAFPSF
TAF
KPSF 230542Z 2306/2406 26005KT P6SM SCT070
     FM231200 28007KT P6SM FEW250
     FM231500 30010G16KT P6SM FEW050 SCT250
     FM231800 30012G20KT P6SM SCT050 BKN250
     FM232300 29008KT P6SM FEW050 SCT250
     FM240300 28005KT P6SM SKC=

USA.gov is the U.S. government's official web portal to all federal, state and local government web resources and services.